<?xml version="1.0" encoding="UTF-8" standalone="no" ?>
<gpx xmlns="http://www.topografix.com/GPX/1/1" xmlns:xsi="http://www.w3.org/2001/XMLSchema-instance" xsi:schemaLocation="http://www.topografix.com/GPX/1/1 http://www.topografix.com/GPX/1/1/gpx.xsd" version="1.1" creator="VisuGPX - https://www.visugpx.com">
  <metadata>
    <name>LIMERZEL (matin)</name>
    <desc><![CDATA[Parking prés de l\'église, prévenir le bar \"chez Yvette\" car elle ferme à 13 heure. Il faut faire ce parcours pour être sur d\'être à l\'heure pour manger. Le parcours de l\'AM est plus long.
quelques dénivellés mais peu difficiles.]]></desc>
  </metadata>
  <trk>
    <name><![CDATA[LIMERZEL (matin)_1]]></name>
    <trkseg>
      <trkpt lat="47.63615" lon="-2.35333">
        <ele>55</ele>
        <time>2014-03-21T08:54:28Z</time>
      </trkpt>
      <trkpt lat="47.63612" lon="-2.35333">
        <ele>55</ele>
        <time>2014-03-21T08:54:58Z</time>
      </trkpt>
      <trkpt lat="47.63612" lon="-2.35327">
        <ele>55</ele>
        <time>2014-03-21T08:55:27Z</time>
      </trkpt>
      <trkpt lat="47.63614" lon="-2.35329">
        <ele>55</ele>
        <time>2014-03-21T08:55:57Z</time>
      </trkpt>
      <trkpt lat="47.63614" lon="-2.3533">
        <ele>56</ele>
        <time>2014-03-21T08:56:28Z</time>
      </trkpt>
      <trkpt lat="47.63613" lon="-2.3533">
        <ele>56</ele>
        <time>2014-03-21T08:56:58Z</time>
      </trkpt>
      <trkpt lat="47.63613" lon="-2.35329">
        <ele>56</ele>
        <time>2014-03-21T08:57:29Z</time>
      </trkpt>
      <trkpt lat="47.63612" lon="-2.35329">
        <ele>56</ele>
        <time>2014-03-21T08:57:58Z</time>
      </trkpt>
      <trkpt lat="47.63612" lon="-2.35333">
        <ele>56</ele>
        <time>2014-03-21T08:58:29Z</time>
      </trkpt>
      <trkpt lat="47.63614" lon="-2.3533">
        <ele>56</ele>
        <time>2014-03-21T08:58:59Z</time>
      </trkpt>
      <trkpt lat="47.63614" lon="-2.35329">
        <ele>56</ele>
        <time>2014-03-21T08:59:29Z</time>
      </trkpt>
      <trkpt lat="47.63614" lon="-2.35327">
        <ele>56</ele>
        <time>2014-03-21T08:59:59Z</time>
      </trkpt>
      <trkpt lat="47.63615" lon="-2.3533">
        <ele>56</ele>
        <time>2014-03-21T09:00:29Z</time>
      </trkpt>
      <trkpt lat="47.63615" lon="-2.35335">
        <ele>56</ele>
        <time>2014-03-21T09:00:59Z</time>
      </trkpt>
      <trkpt lat="47.63623" lon="-2.35355">
        <ele>56</ele>
        <time>2014-03-21T09:01:29Z</time>
      </trkpt>
      <trkpt lat="47.63645" lon="-2.35347">
        <ele>56</ele>
        <time>2014-03-21T09:02:00Z</time>
      </trkpt>
      <trkpt lat="47.63658" lon="-2.35342">
        <ele>58</ele>
        <time>2014-03-21T09:02:30Z</time>
      </trkpt>
      <trkpt lat="47.63683" lon="-2.3534">
        <ele>58</ele>
        <time>2014-03-21T09:03:00Z</time>
      </trkpt>
      <trkpt lat="47.63714" lon="-2.35335">
        <ele>62</ele>
        <time>2014-03-21T09:03:30Z</time>
      </trkpt>
      <trkpt lat="47.63731" lon="-2.35308">
        <ele>62</ele>
        <time>2014-03-21T09:04:00Z</time>
      </trkpt>
      <trkpt lat="47.63739" lon="-2.35292">
        <ele>62</ele>
        <time>2014-03-21T09:04:31Z</time>
      </trkpt>
      <trkpt lat="47.63756" lon="-2.35259">
        <ele>62</ele>
        <time>2014-03-21T09:05:01Z</time>
      </trkpt>
      <trkpt lat="47.63775" lon="-2.35227">
        <ele>62</ele>
        <time>2014-03-21T09:05:31Z</time>
      </trkpt>
      <trkpt lat="47.63792" lon="-2.3521">
        <ele>59</ele>
        <time>2014-03-21T09:06:01Z</time>
      </trkpt>
      <trkpt lat="47.63821" lon="-2.35199">
        <ele>48</ele>
        <time>2014-03-21T09:06:32Z</time>
      </trkpt>
      <trkpt lat="47.63845" lon="-2.35171">
        <ele>48</ele>
        <time>2014-03-21T09:07:02Z</time>
      </trkpt>
      <trkpt lat="47.63834" lon="-2.35123">
        <ele>48</ele>
        <time>2014-03-21T09:07:32Z</time>
      </trkpt>
      <trkpt lat="47.63816" lon="-2.35075">
        <ele>48</ele>
        <time>2014-03-21T09:08:02Z</time>
      </trkpt>
      <trkpt lat="47.63787" lon="-2.35043">
        <ele>48</ele>
        <time>2014-03-21T09:08:33Z</time>
      </trkpt>
      <trkpt lat="47.63758" lon="-2.35015">
        <ele>48</ele>
        <time>2014-03-21T09:09:02Z</time>
      </trkpt>
      <trkpt lat="47.63733" lon="-2.34979">
        <ele>44</ele>
        <time>2014-03-21T09:09:32Z</time>
      </trkpt>
      <trkpt lat="47.63702" lon="-2.34943">
        <ele>38</ele>
        <time>2014-03-21T09:10:03Z</time>
      </trkpt>
      <trkpt lat="47.63683" lon="-2.34921">
        <ele>38</ele>
        <time>2014-03-21T09:10:33Z</time>
      </trkpt>
      <trkpt lat="47.63665" lon="-2.34891">
        <ele>38</ele>
        <time>2014-03-21T09:11:03Z</time>
      </trkpt>
      <trkpt lat="47.63661" lon="-2.34849">
        <ele>38</ele>
        <time>2014-03-21T09:11:33Z</time>
      </trkpt>
      <trkpt lat="47.6364" lon="-2.34821">
        <ele>32</ele>
        <time>2014-03-21T09:12:03Z</time>
      </trkpt>
      <trkpt lat="47.63641" lon="-2.34784">
        <ele>28</ele>
        <time>2014-03-21T09:12:34Z</time>
      </trkpt>
      <trkpt lat="47.63634" lon="-2.3474">
        <ele>33</ele>
        <time>2014-03-21T09:13:04Z</time>
      </trkpt>
      <trkpt lat="47.63638" lon="-2.34697">
        <ele>38</ele>
        <time>2014-03-21T09:13:34Z</time>
      </trkpt>
      <trkpt lat="47.63653" lon="-2.34662">
        <ele>43</ele>
        <time>2014-03-21T09:14:04Z</time>
      </trkpt>
      <trkpt lat="47.63638" lon="-2.34613">
        <ele>43</ele>
        <time>2014-03-21T09:14:35Z</time>
      </trkpt>
      <trkpt lat="47.63621" lon="-2.34562">
        <ele>43</ele>
        <time>2014-03-21T09:15:04Z</time>
      </trkpt>
      <trkpt lat="47.63606" lon="-2.34511">
        <ele>38</ele>
        <time>2014-03-21T09:15:35Z</time>
      </trkpt>
      <trkpt lat="47.63588" lon="-2.3446">
        <ele>38</ele>
        <time>2014-03-21T09:16:05Z</time>
      </trkpt>
      <trkpt lat="47.63572" lon="-2.34414">
        <ele>34</ele>
        <time>2014-03-21T09:16:35Z</time>
      </trkpt>
      <trkpt lat="47.63558" lon="-2.34365">
        <ele>28</ele>
        <time>2014-03-21T09:17:06Z</time>
      </trkpt>
      <trkpt lat="47.63549" lon="-2.34315">
        <ele>28</ele>
        <time>2014-03-21T09:17:36Z</time>
      </trkpt>
      <trkpt lat="47.63541" lon="-2.34272">
        <ele>28</ele>
        <time>2014-03-21T09:18:06Z</time>
      </trkpt>
      <trkpt lat="47.63532" lon="-2.34229">
        <ele>28</ele>
        <time>2014-03-21T09:18:36Z</time>
      </trkpt>
      <trkpt lat="47.63518" lon="-2.34177">
        <ele>27</ele>
        <time>2014-03-21T09:19:06Z</time>
      </trkpt>
      <trkpt lat="47.63506" lon="-2.34131">
        <ele>27</ele>
        <time>2014-03-21T09:19:36Z</time>
      </trkpt>
      <trkpt lat="47.63496" lon="-2.3408">
        <ele>27</ele>
        <time>2014-03-21T09:20:07Z</time>
      </trkpt>
      <trkpt lat="47.63483" lon="-2.34027">
        <ele>27</ele>
        <time>2014-03-21T09:20:37Z</time>
      </trkpt>
      <trkpt lat="47.6348" lon="-2.3398">
        <ele>27</ele>
        <time>2014-03-21T09:21:07Z</time>
      </trkpt>
      <trkpt lat="47.63495" lon="-2.33938">
        <ele>23</ele>
        <time>2014-03-21T09:21:37Z</time>
      </trkpt>
      <trkpt lat="47.6352" lon="-2.33904">
        <ele>23</ele>
        <time>2014-03-21T09:22:07Z</time>
      </trkpt>
      <trkpt lat="47.63546" lon="-2.33883">
        <ele>23</ele>
        <time>2014-03-21T09:22:38Z</time>
      </trkpt>
      <trkpt lat="47.63578" lon="-2.33861">
        <ele>25</ele>
        <time>2014-03-21T09:23:08Z</time>
      </trkpt>
      <trkpt lat="47.63608" lon="-2.3384">
        <ele>25</ele>
        <time>2014-03-21T09:23:38Z</time>
      </trkpt>
      <trkpt lat="47.63637" lon="-2.3382">
        <ele>25</ele>
        <time>2014-03-21T09:24:08Z</time>
      </trkpt>
      <trkpt lat="47.63672" lon="-2.33799">
        <ele>25</ele>
        <time>2014-03-21T09:24:39Z</time>
      </trkpt>
      <trkpt lat="47.637" lon="-2.33765">
        <ele>21</ele>
        <time>2014-03-21T09:25:09Z</time>
      </trkpt>
      <trkpt lat="47.63724" lon="-2.33733">
        <ele>21</ele>
        <time>2014-03-21T09:25:39Z</time>
      </trkpt>
      <trkpt lat="47.63747" lon="-2.33705">
        <ele>21</ele>
        <time>2014-03-21T09:26:09Z</time>
      </trkpt>
      <trkpt lat="47.63767" lon="-2.33701">
        <ele>21</ele>
        <time>2014-03-21T09:26:39Z</time>
      </trkpt>
      <trkpt lat="47.63791" lon="-2.33675">
        <ele>21</ele>
        <time>2014-03-21T09:27:10Z</time>
      </trkpt>
      <trkpt lat="47.63823" lon="-2.33673">
        <ele>23</ele>
        <time>2014-03-21T09:27:40Z</time>
      </trkpt>
      <trkpt lat="47.63857" lon="-2.33665">
        <ele>23</ele>
        <time>2014-03-21T09:28:10Z</time>
      </trkpt>
      <trkpt lat="47.63887" lon="-2.3365">
        <ele>27</ele>
        <time>2014-03-21T09:28:40Z</time>
      </trkpt>
      <trkpt lat="47.63919" lon="-2.33634">
        <ele>27</ele>
        <time>2014-03-21T09:29:10Z</time>
      </trkpt>
      <trkpt lat="47.63952" lon="-2.33618">
        <ele>27</ele>
        <time>2014-03-21T09:29:40Z</time>
      </trkpt>
      <trkpt lat="47.63987" lon="-2.33626">
        <ele>29</ele>
        <time>2014-03-21T09:30:11Z</time>
      </trkpt>
      <trkpt lat="47.64016" lon="-2.33654">
        <ele>29</ele>
        <time>2014-03-21T09:30:41Z</time>
      </trkpt>
      <trkpt lat="47.64041" lon="-2.3368">
        <ele>29</ele>
        <time>2014-03-21T09:31:11Z</time>
      </trkpt>
      <trkpt lat="47.6407" lon="-2.33695">
        <ele>33</ele>
        <time>2014-03-21T09:31:41Z</time>
      </trkpt>
      <trkpt lat="47.64103" lon="-2.33694">
        <ele>33</ele>
        <time>2014-03-21T09:32:11Z</time>
      </trkpt>
      <trkpt lat="47.6414" lon="-2.3369">
        <ele>38</ele>
        <time>2014-03-21T09:32:41Z</time>
      </trkpt>
      <trkpt lat="47.6417" lon="-2.33673">
        <ele>33</ele>
        <time>2014-03-21T09:33:12Z</time>
      </trkpt>
      <trkpt lat="47.64184" lon="-2.33698">
        <ele>33</ele>
        <time>2014-03-21T09:33:42Z</time>
      </trkpt>
      <trkpt lat="47.64186" lon="-2.33739">
        <ele>33</ele>
        <time>2014-03-21T09:34:12Z</time>
      </trkpt>
      <trkpt lat="47.64186" lon="-2.33784">
        <ele>37</ele>
        <time>2014-03-21T09:34:42Z</time>
      </trkpt>
      <trkpt lat="47.64178" lon="-2.33828">
        <ele>37</ele>
        <time>2014-03-21T09:35:12Z</time>
      </trkpt>
      <trkpt lat="47.64165" lon="-2.33864">
        <ele>42</ele>
        <time>2014-03-21T09:35:42Z</time>
      </trkpt>
      <trkpt lat="47.64148" lon="-2.33899">
        <ele>42</ele>
        <time>2014-03-21T09:36:13Z</time>
      </trkpt>
      <trkpt lat="47.64134" lon="-2.33942">
        <ele>46</ele>
        <time>2014-03-21T09:36:43Z</time>
      </trkpt>
      <trkpt lat="47.64133" lon="-2.33958">
        <ele>46</ele>
        <time>2014-03-21T09:37:13Z</time>
      </trkpt>
      <trkpt lat="47.64133" lon="-2.33965">
        <ele>46</ele>
        <time>2014-03-21T09:37:43Z</time>
      </trkpt>
      <trkpt lat="47.64134" lon="-2.33969">
        <ele>46</ele>
        <time>2014-03-21T09:38:13Z</time>
      </trkpt>
      <trkpt lat="47.6413" lon="-2.33973">
        <ele>46</ele>
        <time>2014-03-21T09:38:44Z</time>
      </trkpt>
      <trkpt lat="47.64134" lon="-2.33967">
        <ele>49</ele>
        <time>2014-03-21T09:39:14Z</time>
      </trkpt>
      <trkpt lat="47.64138" lon="-2.33966">
        <ele>49</ele>
        <time>2014-03-21T09:39:44Z</time>
      </trkpt>
      <trkpt lat="47.64154" lon="-2.33947">
        <ele>49</ele>
        <time>2014-03-21T09:40:14Z</time>
      </trkpt>
      <trkpt lat="47.64181" lon="-2.33916">
        <ele>45</ele>
        <time>2014-03-21T09:40:44Z</time>
      </trkpt>
      <trkpt lat="47.6421" lon="-2.33888">
        <ele>41</ele>
        <time>2014-03-21T09:41:15Z</time>
      </trkpt>
      <trkpt lat="47.64232" lon="-2.33883">
        <ele>41</ele>
        <time>2014-03-21T09:41:45Z</time>
      </trkpt>
      <trkpt lat="47.64246" lon="-2.33889">
        <ele>45</ele>
        <time>2014-03-21T09:42:15Z</time>
      </trkpt>
      <trkpt lat="47.64276" lon="-2.33889">
        <ele>45</ele>
        <time>2014-03-21T09:42:45Z</time>
      </trkpt>
      <trkpt lat="47.64311" lon="-2.33895">
        <ele>45</ele>
        <time>2014-03-21T09:43:16Z</time>
      </trkpt>
      <trkpt lat="47.64324" lon="-2.33934">
        <ele>45</ele>
        <time>2014-03-21T09:43:46Z</time>
      </trkpt>
      <trkpt lat="47.64334" lon="-2.33976">
        <ele>45</ele>
        <time>2014-03-21T09:44:16Z</time>
      </trkpt>
      <trkpt lat="47.64354" lon="-2.34006">
        <ele>47</ele>
        <time>2014-03-21T09:44:46Z</time>
      </trkpt>
      <trkpt lat="47.6437" lon="-2.34033">
        <ele>47</ele>
        <time>2014-03-21T09:45:16Z</time>
      </trkpt>
      <trkpt lat="47.64389" lon="-2.34063">
        <ele>47</ele>
        <time>2014-03-21T09:45:46Z</time>
      </trkpt>
      <trkpt lat="47.6442" lon="-2.34064">
        <ele>46</ele>
        <time>2014-03-21T09:46:17Z</time>
      </trkpt>
      <trkpt lat="47.64456" lon="-2.34042">
        <ele>46</ele>
        <time>2014-03-21T09:46:47Z</time>
      </trkpt>
      <trkpt lat="47.64489" lon="-2.34016">
        <ele>50</ele>
        <time>2014-03-21T09:47:17Z</time>
      </trkpt>
      <trkpt lat="47.64521" lon="-2.3399">
        <ele>50</ele>
        <time>2014-03-21T09:47:48Z</time>
      </trkpt>
      <trkpt lat="47.64553" lon="-2.34003">
        <ele>50</ele>
        <time>2014-03-21T09:48:18Z</time>
      </trkpt>
      <trkpt lat="47.6458" lon="-2.34029">
        <ele>46</ele>
        <time>2014-03-21T09:48:49Z</time>
      </trkpt>
      <trkpt lat="47.64594" lon="-2.34075">
        <ele>50</ele>
        <time>2014-03-21T09:49:20Z</time>
      </trkpt>
      <trkpt lat="47.64602" lon="-2.34118">
        <ele>50</ele>
        <time>2014-03-21T09:49:50Z</time>
      </trkpt>
      <trkpt lat="47.64616" lon="-2.34104">
        <ele>50</ele>
        <time>2014-03-21T09:50:20Z</time>
      </trkpt>
      <trkpt lat="47.64626" lon="-2.34056">
        <ele>50</ele>
        <time>2014-03-21T09:50:51Z</time>
      </trkpt>
      <trkpt lat="47.64649" lon="-2.3405">
        <ele>46</ele>
        <time>2014-03-21T09:51:21Z</time>
      </trkpt>
      <trkpt lat="47.64683" lon="-2.34072">
        <ele>46</ele>
        <time>2014-03-21T09:51:52Z</time>
      </trkpt>
      <trkpt lat="47.64713" lon="-2.34085">
        <ele>46</ele>
        <time>2014-03-21T09:52:22Z</time>
      </trkpt>
      <trkpt lat="47.64748" lon="-2.34097">
        <ele>46</ele>
        <time>2014-03-21T09:52:52Z</time>
      </trkpt>
      <trkpt lat="47.64781" lon="-2.34085">
        <ele>50</ele>
        <time>2014-03-21T09:53:23Z</time>
      </trkpt>
      <trkpt lat="47.64798" lon="-2.34041">
        <ele>50</ele>
        <time>2014-03-21T09:53:53Z</time>
      </trkpt>
      <trkpt lat="47.64819" lon="-2.34037">
        <ele>50</ele>
        <time>2014-03-21T09:54:24Z</time>
      </trkpt>
      <trkpt lat="47.64849" lon="-2.34065">
        <ele>50</ele>
        <time>2014-03-21T09:54:54Z</time>
      </trkpt>
      <trkpt lat="47.6488" lon="-2.34095">
        <ele>50</ele>
        <time>2014-03-21T09:55:25Z</time>
      </trkpt>
      <trkpt lat="47.64912" lon="-2.34122">
        <ele>50</ele>
        <time>2014-03-21T09:55:55Z</time>
      </trkpt>
      <trkpt lat="47.64939" lon="-2.34147">
        <ele>51</ele>
        <time>2014-03-21T09:56:26Z</time>
      </trkpt>
      <trkpt lat="47.6496" lon="-2.34176">
        <ele>55</ele>
        <time>2014-03-21T09:56:56Z</time>
      </trkpt>
      <trkpt lat="47.64967" lon="-2.3422">
        <ele>55</ele>
        <time>2014-03-21T09:57:27Z</time>
      </trkpt>
      <trkpt lat="47.64968" lon="-2.3427">
        <ele>59</ele>
        <time>2014-03-21T09:57:58Z</time>
      </trkpt>
      <trkpt lat="47.6497" lon="-2.34323">
        <ele>63</ele>
        <time>2014-03-21T09:58:29Z</time>
      </trkpt>
      <trkpt lat="47.64994" lon="-2.34349">
        <ele>63</ele>
        <time>2014-03-21T09:59:00Z</time>
      </trkpt>
      <trkpt lat="47.6503" lon="-2.34347">
        <ele>63</ele>
        <time>2014-03-21T09:59:30Z</time>
      </trkpt>
      <trkpt lat="47.65065" lon="-2.34346">
        <ele>60</ele>
        <time>2014-03-21T10:00:01Z</time>
      </trkpt>
      <trkpt lat="47.65096" lon="-2.34359">
        <ele>60</ele>
        <time>2014-03-21T10:00:31Z</time>
      </trkpt>
      <trkpt lat="47.65102" lon="-2.34413">
        <ele>60</ele>
        <time>2014-03-21T10:01:03Z</time>
      </trkpt>
      <trkpt lat="47.65107" lon="-2.34471">
        <ele>60</ele>
        <time>2014-03-21T10:01:34Z</time>
      </trkpt>
      <trkpt lat="47.6512" lon="-2.34523">
        <ele>63</ele>
        <time>2014-03-21T10:02:05Z</time>
      </trkpt>
      <trkpt lat="47.65133" lon="-2.34575">
        <ele>63</ele>
        <time>2014-03-21T10:02:36Z</time>
      </trkpt>
      <trkpt lat="47.65144" lon="-2.34632">
        <ele>63</ele>
        <time>2014-03-21T10:03:08Z</time>
      </trkpt>
      <trkpt lat="47.65147" lon="-2.34643">
        <ele>63</ele>
        <time>2014-03-21T10:03:39Z</time>
      </trkpt>
      <trkpt lat="47.65147" lon="-2.34659">
        <ele>63</ele>
        <time>2014-03-21T10:04:10Z</time>
      </trkpt>
      <trkpt lat="47.65154" lon="-2.34704">
        <ele>62</ele>
        <time>2014-03-21T10:04:42Z</time>
      </trkpt>
      <trkpt lat="47.65161" lon="-2.34757">
        <ele>62</ele>
        <time>2014-03-21T10:05:13Z</time>
      </trkpt>
      <trkpt lat="47.65167" lon="-2.34809">
        <ele>62</ele>
        <time>2014-03-21T10:05:44Z</time>
      </trkpt>
      <trkpt lat="47.65174" lon="-2.34861">
        <ele>62</ele>
        <time>2014-03-21T10:06:15Z</time>
      </trkpt>
      <trkpt lat="47.6518" lon="-2.34909">
        <ele>58</ele>
        <time>2014-03-21T10:06:46Z</time>
      </trkpt>
      <trkpt lat="47.65189" lon="-2.34947">
        <ele>58</ele>
        <time>2014-03-21T10:07:17Z</time>
      </trkpt>
      <trkpt lat="47.65212" lon="-2.34947">
        <ele>54</ele>
        <time>2014-03-21T10:07:47Z</time>
      </trkpt>
      <trkpt lat="47.65231" lon="-2.34972">
        <ele>54</ele>
        <time>2014-03-21T10:08:18Z</time>
      </trkpt>
      <trkpt lat="47.65247" lon="-2.35007">
        <ele>54</ele>
        <time>2014-03-21T10:08:49Z</time>
      </trkpt>
      <trkpt lat="47.6525" lon="-2.35053">
        <ele>54</ele>
        <time>2014-03-21T10:09:20Z</time>
      </trkpt>
      <trkpt lat="47.65248" lon="-2.35104">
        <ele>54</ele>
        <time>2014-03-21T10:09:51Z</time>
      </trkpt>
      <trkpt lat="47.65251" lon="-2.35152">
        <ele>54</ele>
        <time>2014-03-21T10:10:23Z</time>
      </trkpt>
      <trkpt lat="47.65258" lon="-2.35204">
        <ele>52</ele>
        <time>2014-03-21T10:10:53Z</time>
      </trkpt>
      <trkpt lat="47.65269" lon="-2.35255">
        <ele>52</ele>
        <time>2014-03-21T10:11:25Z</time>
      </trkpt>
      <trkpt lat="47.65277" lon="-2.35305">
        <ele>52</ele>
        <time>2014-03-21T10:11:55Z</time>
      </trkpt>
      <trkpt lat="47.65282" lon="-2.35354">
        <ele>54</ele>
        <time>2014-03-21T10:12:26Z</time>
      </trkpt>
      <trkpt lat="47.65289" lon="-2.35405">
        <ele>54</ele>
        <time>2014-03-21T10:12:57Z</time>
      </trkpt>
      <trkpt lat="47.65296" lon="-2.35458">
        <ele>54</ele>
        <time>2014-03-21T10:13:28Z</time>
      </trkpt>
      <trkpt lat="47.65291" lon="-2.3551">
        <ele>54</ele>
        <time>2014-03-21T10:13:59Z</time>
      </trkpt>
      <trkpt lat="47.6529" lon="-2.35524">
        <ele>54</ele>
        <time>2014-03-21T10:14:30Z</time>
      </trkpt>
      <trkpt lat="47.6529" lon="-2.35526">
        <ele>54</ele>
        <time>2014-03-21T10:15:00Z</time>
      </trkpt>
      <trkpt lat="47.65293" lon="-2.35535">
        <ele>55</ele>
        <time>2014-03-21T10:15:30Z</time>
      </trkpt>
      <trkpt lat="47.65292" lon="-2.35539">
        <ele>55</ele>
        <time>2014-03-21T10:16:01Z</time>
      </trkpt>
      <trkpt lat="47.65293" lon="-2.3554">
        <ele>55</ele>
        <time>2014-03-21T10:16:31Z</time>
      </trkpt>
      <trkpt lat="47.65282" lon="-2.35571">
        <ele>53</ele>
        <time>2014-03-21T10:17:02Z</time>
      </trkpt>
      <trkpt lat="47.65272" lon="-2.35618">
        <ele>53</ele>
        <time>2014-03-21T10:17:33Z</time>
      </trkpt>
      <trkpt lat="47.65244" lon="-2.35628">
        <ele>57</ele>
        <time>2014-03-21T10:18:04Z</time>
      </trkpt>
      <trkpt lat="47.65216" lon="-2.35629">
        <ele>61</ele>
        <time>2014-03-21T10:18:35Z</time>
      </trkpt>
      <trkpt lat="47.65182" lon="-2.35626">
        <ele>61</ele>
        <time>2014-03-21T10:19:06Z</time>
      </trkpt>
      <trkpt lat="47.65154" lon="-2.35617">
        <ele>65</ele>
        <time>2014-03-21T10:19:36Z</time>
      </trkpt>
      <trkpt lat="47.65124" lon="-2.35611">
        <ele>69</ele>
        <time>2014-03-21T10:20:06Z</time>
      </trkpt>
      <trkpt lat="47.65092" lon="-2.35615">
        <ele>69</ele>
        <time>2014-03-21T10:20:38Z</time>
      </trkpt>
      <trkpt lat="47.65058" lon="-2.35618">
        <ele>73</ele>
        <time>2014-03-21T10:21:08Z</time>
      </trkpt>
      <trkpt lat="47.6503" lon="-2.35615">
        <ele>73</ele>
        <time>2014-03-21T10:21:38Z</time>
      </trkpt>
      <trkpt lat="47.64994" lon="-2.35609">
        <ele>77</ele>
        <time>2014-03-21T10:22:10Z</time>
      </trkpt>
      <trkpt lat="47.64958" lon="-2.35611">
        <ele>77</ele>
        <time>2014-03-21T10:22:40Z</time>
      </trkpt>
      <trkpt lat="47.64925" lon="-2.35617">
        <ele>77</ele>
        <time>2014-03-21T10:23:11Z</time>
      </trkpt>
      <trkpt lat="47.64889" lon="-2.35595">
        <ele>77</ele>
        <time>2014-03-21T10:23:42Z</time>
      </trkpt>
      <trkpt lat="47.64854" lon="-2.35594">
        <ele>77</ele>
        <time>2014-03-21T10:24:12Z</time>
      </trkpt>
      <trkpt lat="47.64818" lon="-2.35594">
        <ele>77</ele>
        <time>2014-03-21T10:24:43Z</time>
      </trkpt>
      <trkpt lat="47.64781" lon="-2.35593">
        <ele>78</ele>
        <time>2014-03-21T10:25:13Z</time>
      </trkpt>
      <trkpt lat="47.64743" lon="-2.35589">
        <ele>78</ele>
        <time>2014-03-21T10:25:44Z</time>
      </trkpt>
      <trkpt lat="47.64705" lon="-2.35587">
        <ele>78</ele>
        <time>2014-03-21T10:26:15Z</time>
      </trkpt>
      <trkpt lat="47.64666" lon="-2.35584">
        <ele>78</ele>
        <time>2014-03-21T10:26:46Z</time>
      </trkpt>
      <trkpt lat="47.64628" lon="-2.35584">
        <ele>78</ele>
        <time>2014-03-21T10:27:16Z</time>
      </trkpt>
      <trkpt lat="47.6459" lon="-2.35595">
        <ele>74</ele>
        <time>2014-03-21T10:27:47Z</time>
      </trkpt>
      <trkpt lat="47.64557" lon="-2.35605">
        <ele>74</ele>
        <time>2014-03-21T10:28:17Z</time>
      </trkpt>
      <trkpt lat="47.6452" lon="-2.3561">
        <ele>74</ele>
        <time>2014-03-21T10:28:48Z</time>
      </trkpt>
      <trkpt lat="47.64485" lon="-2.35607">
        <ele>74</ele>
        <time>2014-03-21T10:29:19Z</time>
      </trkpt>
      <trkpt lat="47.6445" lon="-2.35595">
        <ele>73</ele>
        <time>2014-03-21T10:29:50Z</time>
      </trkpt>
      <trkpt lat="47.64413" lon="-2.35581">
        <ele>73</ele>
        <time>2014-03-21T10:30:20Z</time>
      </trkpt>
      <trkpt lat="47.64376" lon="-2.35567">
        <ele>73</ele>
        <time>2014-03-21T10:30:50Z</time>
      </trkpt>
      <trkpt lat="47.6434" lon="-2.35573">
        <ele>73</ele>
        <time>2014-03-21T10:31:21Z</time>
      </trkpt>
      <trkpt lat="47.64304" lon="-2.35594">
        <ele>73</ele>
        <time>2014-03-21T10:31:52Z</time>
      </trkpt>
      <trkpt lat="47.6427" lon="-2.35612">
        <ele>69</ele>
        <time>2014-03-21T10:32:22Z</time>
      </trkpt>
      <trkpt lat="47.64233" lon="-2.3562">
        <ele>69</ele>
        <time>2014-03-21T10:32:52Z</time>
      </trkpt>
      <trkpt lat="47.64195" lon="-2.35607">
        <ele>69</ele>
        <time>2014-03-21T10:33:23Z</time>
      </trkpt>
      <trkpt lat="47.64162" lon="-2.35582">
        <ele>69</ele>
        <time>2014-03-21T10:33:54Z</time>
      </trkpt>
      <trkpt lat="47.64124" lon="-2.35567">
        <ele>69</ele>
        <time>2014-03-21T10:34:25Z</time>
      </trkpt>
      <trkpt lat="47.64087" lon="-2.3558">
        <ele>65</ele>
        <time>2014-03-21T10:34:55Z</time>
      </trkpt>
      <trkpt lat="47.64052" lon="-2.35606">
        <ele>65</ele>
        <time>2014-03-21T10:35:27Z</time>
      </trkpt>
      <trkpt lat="47.64018" lon="-2.35622">
        <ele>65</ele>
        <time>2014-03-21T10:35:57Z</time>
      </trkpt>
      <trkpt lat="47.63982" lon="-2.35624">
        <ele>65</ele>
        <time>2014-03-21T10:36:28Z</time>
      </trkpt>
      <trkpt lat="47.63947" lon="-2.35622">
        <ele>65</ele>
        <time>2014-03-21T10:36:59Z</time>
      </trkpt>
      <trkpt lat="47.63914" lon="-2.35605">
        <ele>65</ele>
        <time>2014-03-21T10:37:30Z</time>
      </trkpt>
      <trkpt lat="47.63881" lon="-2.35587">
        <ele>70</ele>
        <time>2014-03-21T10:38:00Z</time>
      </trkpt>
      <trkpt lat="47.63849" lon="-2.35568">
        <ele>70</ele>
        <time>2014-03-21T10:38:31Z</time>
      </trkpt>
      <trkpt lat="47.63815" lon="-2.35553">
        <ele>75</ele>
        <time>2014-03-21T10:39:01Z</time>
      </trkpt>
      <trkpt lat="47.63787" lon="-2.35528">
        <ele>75</ele>
        <time>2014-03-21T10:39:32Z</time>
      </trkpt>
      <trkpt lat="47.63768" lon="-2.35493">
        <ele>75</ele>
        <time>2014-03-21T10:40:03Z</time>
      </trkpt>
      <trkpt lat="47.63739" lon="-2.35487">
        <ele>73</ele>
        <time>2014-03-21T10:40:34Z</time>
      </trkpt>
      <trkpt lat="47.63709" lon="-2.35469">
        <ele>69</ele>
        <time>2014-03-21T10:41:04Z</time>
      </trkpt>
      <trkpt lat="47.63692" lon="-2.3543">
        <ele>65</ele>
        <time>2014-03-21T10:41:34Z</time>
      </trkpt>
      <trkpt lat="47.63661" lon="-2.35426">
        <ele>61</ele>
        <time>2014-03-21T10:42:05Z</time>
      </trkpt>
      <trkpt lat="47.63633" lon="-2.35412">
        <ele>57</ele>
        <time>2014-03-21T10:42:35Z</time>
      </trkpt>
      <trkpt lat="47.63644" lon="-2.35372">
        <ele>57</ele>
        <time>2014-03-21T10:43:06Z</time>
      </trkpt>
      <trkpt lat="47.63623" lon="-2.35351">
        <ele>57</ele>
        <time>2014-03-21T10:43:36Z</time>
      </trkpt>
    </trkseg>
  </trk>
</gpx>